Time;durP1;ratioP1;P1;durP2;ratioP2;P2;SDS_P1;SDS_P2;PMS_P1;PMS_P2;Temp;Humidity;BMP_temperature;BMP_pressure;BME280_temperature;BME280_humidity;BME280_pressure;Samples;Min_cycle;Max_cycle;Signal;HPM_P1;HPM_P2
2024/04/17 00:00:38;;;;;;;3.60;2.80;;;;;;;11.45;86.14;98266.41;106267;1251;73674;-74
2024/04/17 00:03:05;;;;;;;7.10;3.80;;;;;;;11.27;86.69;98195.92;105894;1251;70313;-73
2024/04/17 00:05:31;;;;;;;4.70;3.00;;;;;;;11.13;87.55;98185.95;106502;1251;70750;-72
2024/04/17 00:07:58;;;;;;;5.20;3.50;;;;;;;10.97;87.79;98182.73;106221;1252;61337;-72
2024/04/17 00:10:25;;;;;;;4.90;2.60;;;;;;;10.88;88.00;98144.83;106147;1251;61289;-73
2024/04/17 00:12:51;;;;;;;5.30;2.40;;;;;;;10.80;87.81;98142.02;106081;1254;73239;-70
2024/04/17 00:15:18;;;;;;;4.70;2.50;;;;;;;10.62;87.50;98161.06;106161;1255;61234;-72
2024/04/17 00:17:44;;;;;;;3.00;2.10;;;;;;;10.40;87.59;98161.37;106088;1251;71242;-74
2024/04/17 00:20:12;;;;;;;3.10;2.10;;;;;;;10.24;87.48;98152.13;105635;1251;62557;-72
2024/04/17 00:22:38;;;;;;;5.90;3.00;;;;;;;10.09;86.97;98151.39;105677;1251;61135;-73
2024/04/17 00:25:05;;;;;;;4.20;1.90;;;;;;;9.89;87.37;98148.12;105690;1256;74166;-71
2024/04/17 00:27:32;;;;;;;2.60;1.70;;;;;;;9.77;88.42;98139.82;105826;1251;71019;-73
2024/04/17 00:29:59;;;;;;;4.80;1.90;;;;;;;9.76;89.20;98141.29;106112;1257;73113;-72
2024/04/17 00:32:26;;;;;;;2.20;1.80;;;;;;;9.78;89.71;98140.92;106345;1251;61244;-71
2024/04/17 00:34:52;;;;;;;2.10;1.60;;;;;;;9.74;90.03;98145.04;106201;1256;61179;-74
2024/04/17 00:37:19;;;;;;;2.10;1.90;;;;;;;9.64;89.64;98154.04;106039;1253;74746;-70
2024/04/17 00:39:46;;;;;;;1.80;1.60;;;;;;;9.58;88.96;98155.37;106029;1256;68796;-70
2024/04/17 00:42:12;;;;;;;2.80;1.70;;;;;;;9.52;89.27;98160.12;105664;1254;61337;-72
2024/04/17 00:44:39;;;;;;;3.80;1.60;;;;;;;9.43;90.25;98190.04;105637;1251;61250;-73
2024/04/17 00:47:07;;;;;;;3.50;1.60;;;;;;;9.37;90.93;98225.60;106236;1254;61080;-71
2024/04/17 00:49:35;;;;;;;3.50;1.40;;;;;;;9.40;90.41;98245.52;106693;1252;73033;-71
2024/04/17 00:52:02;;;;;;;2.50;1.70;;;;;;;9.40;90.38;98227.81;105877;1251;70894;-73
2024/04/17 00:54:28;;;;;;;3.60;1.70;;;;;;;9.36;90.38;98197.98;105547;1251;72679;-72
2024/04/17 00:56:55;;;;;;;3.10;1.60;;;;;;;9.33;90.15;98196.39;106132;1251;61340;-70
2024/04/17 00:59:22;;;;;;;2.00;1.40;;;;;;;9.34;90.46;98186.08;105662;1251;61158;-71
2024/04/17 01:01:49;;;;;;;2.90;1.70;;;;;;;9.35;90.95;98144.61;105733;1251;74985;-73
2024/04/17 01:04:15;;;;;;;3.40;1.90;;;;;;;9.35;91.44;98146.23;106244;1251;70439;-71
2024/04/17 01:06:42;;;;;;;3.30;1.70;;;;;;;9.39;91.69;98128.73;106094;1257;72372;-72
2024/04/17 01:09:09;;;;;;;2.60;1.50;;;;;;;9.38;91.56;98131.55;106050;1251;61624;-75
2024/04/17 01:11:39;;;;;;;1.90;1.70;;;;;;;9.36;91.72;98123.01;106193;1258;61212;-71
2024/04/17 01:14:06;;;;;;;2.40;1.80;;;;;;;9.35;92.15;98111.51;105627;1251;73146;-74
2024/04/17 01:16:35;;;;;;;2.00;1.80;;;;;;;9.29;92.63;98104.77;106021;1254;70370;-74
2024/04/17 01:19:03;;;;;;;3.30;2.10;;;;;;;9.23;92.81;98112.48;105628;1251;72559;-73
2024/04/17 01:21:31;;;;;;;4.40;2.10;;;;;;;9.19;93.57;98128.05;105630;1256;61340;-70
2024/04/17 01:23:57;;;;;;;3.80;1.90;;;;;;;9.13;94.15;98118.41;105913;1252;61702;-72
2024/04/17 01:26:24;;;;;;;4.20;2.00;;;;;;;9.12;94.81;98112.63;105988;1257;61228;-71
2024/04/17 01:28:50;;;;;;;3.60;2.30;;;;;;;9.13;95.72;98098.52;106204;1254;70344;-70
2024/04/17 01:31:17;;;;;;;2.90;2.00;;;;;;;9.09;96.51;98118.61;105662;1256;72444;-70
2024/04/17 01:33:44;;;;;;;2.60;1.70;;;;;;;9.05;96.48;98121.20;106099;1251;61358;-73
2024/04/17 01:36:13;;;;;;;2.60;2.00;;;;;;;9.00;96.78;98123.83;105706;1257;61323;-72
2024/04/17 01:38:40;;;;;;;3.70;1.90;;;;;;;8.95;97.37;98111.61;106084;1256;75025;-71
2024/04/17 01:41:07;;;;;;;3.00;1.90;;;;;;;8.93;98.20;98107.08;106169;1251;70331;-73
2024/04/17 01:43:33;;;;;;;2.70;1.90;;;;;;;8.88;98.47;98090.53;106153;1254;61274;-72
2024/04/17 01:46:00;;;;;;;3.90;2.00;;;;;;;8.79;98.63;98067.67;106033;1253;61317;-72
2024/04/17 01:48:26;;;;;;;2.00;1.80;;;;;;;8.69;99.05;98054.23;106164;1256;61103;-71
2024/04/17 01:50:53;;;;;;;3.60;1.60;;;;;;;8.64;98.87;98069.31;106310;1255;61324;-70
2024/04/17 01:53:19;;;;;;;2.10;1.60;;;;;;;8.58;99.27;98068.64;106199;1251;61256;-72
2024/04/17 01:55:46;;;;;;;4.90;2.00;;;;;;;8.56;99.80;98065.01;106125;1251;61362;-72
2024/04/17 01:58:12;;;;;;;3.00;2.10;;;;;;;8.59;100.00;98062.69;105881;1254;61313;-71
2024/04/17 02:00:39;;;;;;;2.10;1.70;;;;;;;8.62;100.00;98050.83;106103;1251;61317;-73
2024/04/17 02:03:06;;;;;;;2.20;1.80;;;;;;;8.62;100.00;98047.28;106181;1251;74583;-70
2024/04/17 02:05:32;;;;;;;2.10;1.90;;;;;;;8.65;100.00;98065.22;105954;1253;70089;-71
2024/04/17 02:07:59;;;;;;;2.40;1.90;;;;;;;8.61;100.00;98075.85;106026;1251;61212;-72
2024/04/17 02:10:26;;;;;;;2.80;2.20;;;;;;;8.59;100.00;98081.51;105995;1251;61974;-72
2024/04/17 02:12:52;;;;;;;3.30;1.90;;;;;;;8.64;100.00;98076.52;105695;1257;61221;-73
2024/04/17 02:15:19;;;;;;;3.20;2.50;;;;;;;8.66;100.00;98074.83;106100;1251;61243;-71
2024/04/17 02:17:45;;;;;;;2.30;2.10;;;;;;;8.69;100.00;98084.85;106096;1251;61240;-74
2024/04/17 02:20:12;;;;;;;2.30;1.80;;;;;;;8.65;100.00;98084.27;106025;1254;61313;-71
2024/04/17 02:22:39;;;;;;;1.80;1.60;;;;;;;8.66;100.00;98081.75;105955;1251;69054;-72
2024/04/17 02:25:06;;;;;;;3.50;1.90;;;;;;;8.69;100.00;98093.93;105804;1254;61120;-73
2024/04/17 02:27:32;;;;;;;2.40;1.70;;;;;;;8.70;100.00;98098.52;106006;1251;74335;-74
2024/04/17 02:29:59;;;;;;;3.40;2.40;;;;;;;8.73;100.00;98099.79;106159;1256;67927;-74
2024/04/17 02:32:25;;;;;;;1.70;1.60;;;;;;;8.67;100.00;98108.11;106061;1256;61321;-72
2024/04/17 02:34:52;;;;;;;2.10;1.90;;;;;;;8.64;100.00;98110.58;106044;1257;61304;-74
2024/04/17 02:37:18;;;;;;;2.10;1.90;;;;;;;8.65;100.00;98104.30;106116;1251;61526;-73
2024/04/17 02:39:45;;;;;;;2.20;2.00;;;;;;;8.65;100.00;98096.89;106103;1256;61244;-71
2024/04/17 02:42:11;;;;;;;3.50;2.00;;;;;;;8.66;100.00;98093.68;106265;1254;61292;-73
2024/04/17 02:44:40;;;;;;;4.10;2.00;;;;;;;8.70;100.00;98090.80;106395;1253;72478;-71
2024/04/17 02:47:06;;;;;;;4.00;1.90;;;;;;;8.69;100.00;98097.02;106256;1251;61304;-72
2024/04/17 02:49:33;;;;;;;3.70;2.80;;;;;;;8.69;99.42;98101.80;106008;1253;61931;-73
2024/04/17 02:52:00;;;;;;;4.50;2.30;;;;;;;8.67;98.70;98095.73;106127;1251;74701;-72
2024/04/17 02:54:27;;;;;;;3.10;1.90;;;;;;;8.66;99.19;98089.48;106043;1254;70080;-71
2024/04/17 02:56:53;;;;;;;4.40;2.30;;;;;;;8.71;99.14;98097.41;106015;1257;72434;-72
2024/04/17 02:59:20;;;;;;;2.70;2.10;;;;;;;8.69;98.98;98113.61;106080;1256;61304;-72
2024/04/17 03:01:46;;;;;;;3.00;2.20;;;;;;;8.73;99.39;98107.85;105957;1254;61208;-75
2024/04/17 03:04:13;;;;;;;2.40;2.20;;;;;;;8.79;98.63;98100.91;106104;1258;74663;-72
2024/04/17 03:06:40;;;;;;;2.40;2.20;;;;;;;8.74;98.60;98106.79;106153;1254;70366;-71
2024/04/17 03:09:06;;;;;;;4.10;2.20;;;;;;;8.73;98.54;98116.33;106104;1251;61144;-70
2024/04/17 03:11:36;;;;;;;2.70;1.90;;;;;;;8.77;98.36;98128.02;106166;1251;61794;-73
2024/04/17 03:14:03;;;;;;;2.90;2.50;;;;;;;8.78;97.86;98137.05;106210;1251;61301;-72
2024/04/17 03:16:30;;;;;;;2.70;2.50;;;;;;;8.74;97.79;98155.26;106137;1253;73589;-73
2024/04/17 03:18:57;;;;;;;2.40;2.20;;;;;;;8.69;97.69;98164.81;106108;1251;70826;-71
2024/04/17 03:21:24;;;;;;;6.40;2.40;;;;;;;8.72;97.00;98176.36;106157;1254;72692;-72
2024/04/17 03:23:51;;;;;;;2.50;2.10;;;;;;;8.68;96.87;98185.13;106081;1254;61711;-73
2024/04/17 03:26:18;;;;;;;3.00;2.30;;;;;;;8.69;97.61;98184.12;106187;1251;61633;-75
2024/04/17 03:28:44;;;;;;;3.10;2.80;;;;;;;8.71;98.02;98193.02;106073;1255;74701;-75
2024/04/17 03:31:11;;;;;;;3.90;2.40;;;;;;;8.72;97.64;98198.64;106154;1251;70096;-73
2024/04/17 03:33:37;;;;;;;2.60;2.30;;;;;;;8.73;97.37;98200.02;106055;1254;74164;-77
2024/04/17 03:36:04;;;;;;;2.70;2.50;;;;;;;8.75;97.72;98207.17;106426;1252;61428;-76
2024/04/17 03:38:31;;;;;;;3.70;2.30;;;;;;;8.76;98.16;98217.27;106810;1251;61320;-75
2024/04/17 03:40:57;;;;;;;4.80;2.60;;;;;;;8.77;97.46;98225.45;106282;1252;74620;-77
2024/04/17 03:43:24;;;;;;;3.70;2.50;;;;;;;8.76;96.99;98223.23;106040;1254;70298;-72
2024/04/17 03:45:51;;;;;;;4.90;3.30;;;;;;;8.71;97.77;98235.66;105985;1252;72508;-74
2024/04/17 03:48:18;;;;;;;3.50;2.30;;;;;;;8.70;97.47;98244.86;106066;1251;61827;-73
2024/04/17 03:50:45;;;;;;;3.80;2.30;;;;;;;8.69;96.93;98248.11;106011;1256;61544;-74
2024/04/17 03:53:11;;;;;;;4.80;2.50;;;;;;;8.67;96.67;98241.85;106052;1256;61355;-74
2024/04/17 03:55:38;;;;;;;2.70;2.30;;;;;;;8.65;97.71;98228.05;105971;1254;70799;-74
2024/04/17 03:58:05;;;;;;;2.80;2.10;;;;;;;8.72;98.32;98221.95;105928;1254;72560;-75
2024/04/17 04:00:31;;;;;;;7.20;3.00;;;;;;;8.79;98.39;98219.83;106123;1257;61224;-77
2024/04/17 04:02:58;;;;;;;26.40;17.00;;;;;;;8.75;97.84;98218.58;106155;1256;61116;-74
2024/04/17 04:05:25;;;;;;;3.20;2.50;;;;;;;8.75;97.44;98205.20;106747;1251;74352;-74
2024/04/17 04:07:52;;;;;;;3.00;2.30;;;;;;;8.73;97.07;98203.49;106523;1252;61250;-76
2024/04/17 04:10:19;;;;;;;2.90;2.10;;;;;;;8.70;97.73;98212.05;106661;1254;72487;-74
2024/04/17 04:12:46;;;;;;;5.20;2.10;;;;;;;8.70;97.26;98206.85;106286;1251;61915;-76
2024/04/17 04:15:13;;;;;;;2.80;2.00;;;;;;;8.73;97.88;98188.02;106025;1252;61240;-76
2024/04/17 04:17:40;;;;;;;3.30;2.00;;;;;;;8.72;97.69;98178.36;106209;1253;74427;-74
2024/04/17 04:20:06;;;;;;;3.50;2.10;;;;;;;8.75;98.15;98163.62;106150;1251;68988;-75
2024/04/17 04:22:33;;;;;;;2.30;2.10;;;;;;;8.74;98.29;98157.27;106000;1251;72716;-75
2024/04/17 04:25:00;;;;;;;2.60;1.90;;;;;;;8.76;97.97;98152.67;105934;1252;61394;-74
2024/04/17 04:27:27;;;;;;;4.60;2.50;;;;;;;8.75;98.40;98149.08;106048;1251;61174;-77
2024/04/17 04:29:53;;;;;;;2.70;2.50;;;;;;;8.69;98.05;98147.99;106160;1257;74773;-75
2024/04/17 04:32:20;;;;;;;3.00;2.00;;;;;;;8.63;98.02;98149.64;106741;1251;61142;-74
2024/04/17 04:34:46;;;;;;;2.10;1.90;;;;;;;8.63;98.61;98147.22;106258;1256;61274;-75
2024/04/17 04:37:13;;;;;;;2.10;1.90;;;;;;;8.62;99.00;98145.05;106086;1251;61662;-76
2024/04/17 04:39:39;;;;;;;3.00;2.40;;;;;;;8.63;99.10;98133.42;106084;1257;61362;-73
2024/04/17 04:42:07;;;;;;;2.30;2.00;;;;;;;8.63;99.31;98132.56;105895;1255;74789;-73
2024/04/17 04:44:34;;;;;;;3.10;2.40;;;;;;;8.63;99.45;98135.45;105802;1252;199820;-73
2024/04/17 04:48:37;;;;;;;5.80;2.20;;;;;;;8.59;99.39;98151.80;102666;1292;615267;-74
2024/04/17 04:51:04;;;;;;;10.60;6.50;;;;;;;8.61;99.10;98159.91;104869;1267;60002;-74
2024/04/17 04:53:30;;;;;;;4.40;2.10;;;;;;;8.64;99.31;98158.23;105026;1270;59613;-75
2024/04/17 04:55:58;;;;;;;3.70;2.40;;;;;;;8.69;99.76;98145.79;104772;1267;60018;-73
2024/04/17 04:58:25;;;;;;;2.50;2.20;;;;;;;8.75;99.78;98141.02;105091;1267;70151;-75
2024/04/17 05:00:52;;;;;;;2.40;2.00;;;;;;;8.75;99.67;98140.09;104742;1269;185015;-75
2024/04/17 05:03:18;;;;;;;4.30;2.90;;;;;;;8.74;99.63;98134.70;105180;1267;59733;-74
2024/04/17 05:05:45;;;;;;;2.40;2.20;;;;;;;8.74;99.72;98132.95;105172;1264;60265;-72
2024/04/17 05:08:12;;;;;;;3.90;2.90;;;;;;;8.75;99.44;98132.27;105119;1264;71772;-74
2024/04/17 05:10:39;;;;;;;3.50;2.90;;;;;;;8.71;99.58;98142.20;105812;1257;69657;-75
2024/04/17 05:13:05;;;;;;;2.60;2.20;;;;;;;8.70;99.64;98149.67;105722;1257;71500;-75
2024/04/17 05:15:32;;;;;;;5.10;2.30;;;;;;;8.74;99.00;98158.03;105709;1258;61931;-76
2024/04/17 05:17:59;;;;;;;2.80;2.30;;;;;;;8.76;98.62;98163.92;105877;1258;60577;-74
2024/04/17 05:20:26;;;;;;;3.00;2.10;;;;;;;8.79;98.60;98174.73;106116;1254;74059;-74
2024/04/17 05:22:53;;;;;;;2.70;1.80;;;;;;;8.78;98.91;98179.33;105945;1254;70552;-73
2024/04/17 05:25:20;;;;;;;3.40;2.30;;;;;;;8.81;98.93;98183.23;106311;1253;71296;-72
2024/04/17 05:27:47;;;;;;;2.10;1.90;;;;;;;8.83;99.29;98182.25;106162;1254;60418;-72
2024/04/17 05:30:13;;;;;;;2.30;2.00;;;;;;;8.85;99.12;98174.03;105814;1258;62080;-74
2024/04/17 05:32:40;;;;;;;2.60;2.00;;;;;;;8.89;98.69;98178.85;106051;1254;73881;-73
2024/04/17 05:35:07;;;;;;;2.60;1.80;;;;;;;8.89;97.92;98175.19;105976;1256;69255;-74
2024/04/17 05:37:34;;;;;;;3.10;1.60;;;;;;;8.86;97.71;98168.01;105880;1254;74076;-73
2024/04/17 05:40:01;;;;;;;2.30;1.80;;;;;;;8.82;97.55;98164.92;105895;1253;60517;-74
2024/04/17 05:42:28;;;;;;;3.80;1.80;;;;;;;8.75;97.65;98174.47;106213;1256;60428;-74
2024/04/17 05:44:55;;;;;;;1.70;1.50;;;;;;;8.73;97.88;98183.73;105966;1254;73883;-76
2024/04/17 05:47:21;;;;;;;5.80;1.80;;;;;;;8.72;97.71;98189.48;106115;1251;70301;-74
2024/04/17 05:49:48;;;;;;;1.80;1.60;;;;;;;8.72;98.03;98199.25;105995;1256;72610;-76
2024/04/17 05:52:20;;;;;;;2.10;1.80;;;;;;;8.71;98.20;98205.23;106044;1251;61918;-76
2024/04/17 05:54:47;;;;;;;2.20;1.50;;;;;;;8.68;97.77;98200.93;106052;1254;60417;-75
2024/04/17 05:57:13;;;;;;;2.00;1.80;;;;;;;8.64;97.67;98204.08;105989;1256;60808;-76
2024/04/17 05:59:40;;;;;;;6.10;1.80;;;;;;;8.60;97.94;98214.35;105869;1253;69312;-75
2024/04/17 06:02:07;;;;;;;3.20;2.00;;;;;;;8.55;98.11;98211.19;106032;1254;74027;-75
2024/04/17 06:04:34;;;;;;;2.60;2.00;;;;;;;8.54;98.16;98207.48;105964;1253;63191;-76
2024/04/17 06:07:00;;;;;;;3.60;2.20;;;;;;;8.51;98.25;98211.19;106220;1254;60437;-75
2024/04/17 06:09:27;;;;;;;6.00;3.00;;;;;;;8.46;97.98;98215.84;106208;1254;73642;-76
2024/04/17 06:11:54;;;;;;;2.40;2.10;;;;;;;8.42;98.15;98219.59;106027;1253;69109;-75
2024/04/17 06:14:20;;;;;;;4.20;2.30;;;;;;;8.39;98.19;98227.13;106394;1252;72502;-77
2024/04/17 06:16:47;;;;;;;5.20;2.60;;;;;;;8.38;98.48;98239.48;106672;1253;60574;-76
2024/04/17 06:19:14;;;;;;;3.10;2.40;;;;;;;8.37;98.39;98248.95;108268;1252;59206;-74
2024/04/17 06:21:41;;;;;;;4.10;2.50;;;;;;;8.34;98.34;98250.15;108139;1253;71758;-75
2024/04/17 06:24:08;;;;;;;4.40;2.20;;;;;;;8.33;98.82;98255.95;107024;1257;70588;-76
2024/04/17 06:26:36;;;;;;;4.50;2.30;;;;;;;8.37;99.24;98257.55;106081;1253;72528;-74
2024/04/17 06:29:03;;;;;;;4.00;1.90;;;;;;;8.40;99.16;98265.14;106164;1256;61752;-76
2024/04/17 06:31:30;;;;;;;13.70;9.00;;;;;;;8.40;99.60;98275.14;105999;1254;60539;-76
2024/04/17 06:33:57;;;;;;;7.50;3.20;;;;;;;8.39;99.87;98279.52;106172;1256;72553;-75
2024/04/17 06:36:24;;;;;;;2.80;2.10;;;;;;;8.43;99.99;98286.30;106170;1254;71885;-76
2024/04/17 06:38:51;;;;;;;3.90;2.10;;;;;;;8.44;100.00;98290.01;105902;1254;72563;-75
2024/04/17 06:41:17;;;;;;;2.20;2.00;;;;;;;8.42;100.00;98289.11;106104;1251;60763;-77
2024/04/17 06:43:44;;;;;;;3.50;1.90;;;;;;;8.44;100.00;98292.90;105954;1252;60558;-73
2024/04/17 06:46:11;;;;;;;2.80;2.10;;;;;;;8.47;100.00;98305.05;106058;1254;72808;-76
2024/04/17 06:48:38;;;;;;;2.10;1.90;;;;;;;8.50;100.00;98305.16;105837;1259;68979;-75
2024/04/17 06:51:05;;;;;;;4.00;2.20;;;;;;;8.49;100.00;98307.60;105997;1255;71835;-75
2024/04/17 06:53:32;;;;;;;3.50;2.00;;;;;;;8.47;100.00;98314.58;105968;1251;62055;-77
2024/04/17 06:55:59;;;;;;;2.40;2.00;;;;;;;8.46;100.00;98316.62;106011;1255;60544;-76
2024/04/17 06:58:27;;;;;;;3.90;2.00;;;;;;;8.46;100.00;98317.11;106065;1257;73703;-77
2024/04/17 07:00:54;;;;;;;3.40;2.20;;;;;;;8.46;100.00;98320.61;105892;1254;70399;-76
2024/04/17 07:03:21;;;;;;;7.80;3.20;;;;;;;8.47;100.00;98316.30;106092;1254;72738;-76
2024/04/17 07:05:48;;;;;;;3.70;2.20;;;;;;;8.49;100.00;98316.52;106312;1253;60817;-77
2024/04/17 07:08:15;;;;;;;2.70;2.10;;;;;;;8.50;100.00;98316.52;106058;1257;60532;-78
2024/04/17 07:10:41;;;;;;;2.60;1.80;;;;;;;8.53;100.00;98315.98;107294;1254;72489;-75
2024/04/17 07:13:08;;;;;;;3.00;2.00;;;;;;;8.56;100.00;98312.84;108445;1253;69428;-77
2024/04/17 07:15:35;;;;;;;3.50;2.40;;;;;;;8.60;100.00;98312.75;107551;1256;71791;-77
2024/04/17 07:18:02;;;;;;;2.60;1.90;;;;;;;8.62;100.00;98313.27;106218;1253;62832;-77
2024/04/17 07:20:31;;;;;;;3.40;2.30;;;;;;;8.62;100.00;98312.04;106276;1254;60444;-77
2024/04/17 07:22:58;;;;;;;3.70;2.60;;;;;;;8.65;100.00;98305.98;106458;1254;73934;-80
2024/04/17 07:25:26;;;;;;;2.90;2.40;;;;;;;8.73;100.00;98304.13;106573;1257;69972;-80
2024/04/17 07:27:54;;;;;;;3.30;2.70;;;;;;;8.81;100.00;98305.59;106373;1257;70227;-79
2024/04/17 07:30:21;;;;;;;4.50;2.90;;;;;;;8.79;100.00;98305.34;106365;1253;62028;-81
2024/04/17 07:32:48;;;;;;;5.40;3.10;;;;;;;8.75;100.00;98306.13;106904;1252;61505;-80
2024/04/17 07:35:16;;;;;;;5.50;3.30;;;;;;;8.77;100.00;98304.36;106099;1252;72647;-80
2024/04/17 07:37:43;;;;;;;5.00;3.10;;;;;;;8.78;100.00;98304.23;106083;1254;70368;-80
2024/04/17 07:40:10;;;;;;;5.30;2.80;;;;;;;8.76;100.00;98301.91;106273;1254;70858;-80
2024/04/17 07:42:37;;;;;;;3.80;2.90;;;;;;;8.75;100.00;98301.36;106157;1254;60391;-81
2024/04/17 07:45:04;;;;;;;4.40;2.90;;;;;;;8.72;100.00;98298.80;106407;1256;60337;-81
2024/04/17 07:47:31;;;;;;;6.30;4.10;;;;;;;8.68;100.00;98293.63;107212;1254;72214;-81
2024/04/17 07:50:03;;;;;;;3.70;3.30;;;;;;;8.64;100.00;98285.34;107304;1253;68928;-82
2024/04/17 07:52:30;;;;;;;3.40;2.60;;;;;;;8.68;100.00;98288.05;107142;1253;72637;-79
2024/04/17 07:54:57;;;;;;;2.90;2.30;;;;;;;8.64;100.00;98285.63;106199;1257;60351;-79
2024/04/17 07:57:24;;;;;;;3.20;2.40;;;;;;;8.59;100.00;98288.39;106233;1254;60520;-80
2024/04/17 07:59:54;;;;;;;5.50;2.70;;;;;;;8.56;100.00;98285.04;106419;1254;73971;-79
2024/04/17 08:02:20;;;;;;;4.70;2.70;;;;;;;8.56;100.00;98284.59;106343;1259;68984;-80
2024/04/17 08:04:47;;;;;;;5.20;3.20;;;;;;;8.58;100.00;98279.66;108118;1251;71610;-82
2024/04/17 08:07:14;;;;;;;5.10;3.10;;;;;;;8.60;100.00;98275.98;109000;1251;60002;-81
2024/04/17 08:09:41;;;;;;;4.20;3.00;;;;;;;8.63;100.00;98277.27;107665;1251;59617;-82
2024/04/17 08:12:08;;;;;;;4.20;2.90;;;;;;;8.69;100.00;98273.00;107289;1251;73827;-83
2024/04/17 08:14:35;;;;;;;4.30;2.90;;;;;;;8.70;100.00;98269.09;107507;1257;70796;-81
2024/04/17 08:17:02;;;;;;;4.10;3.00;;;;;;;8.69;100.00;98268.75;106690;1254;72335;-80
2024/04/17 08:19:30;;;;;;;5.70;3.20;;;;;;;8.69;100.00;98269.40;106388;1250;61711;-81
2024/04/17 08:21:56;;;;;;;4.70;3.00;;;;;;;8.70;100.00;98266.86;106196;1251;59942;-81
2024/04/17 08:24:23;;;;;;;3.80;2.60;;;;;;;8.72;100.00;98265.56;106208;1251;75148;-80
2024/04/17 08:26:50;;;;;;;5.00;3.40;;;;;;;8.73;100.00;98266.34;106306;1257;69497;-79
2024/04/17 08:29:17;;;;;;;4.50;3.20;;;;;;;8.74;100.00;98263.95;106111;1251;71399;-80
2024/04/17 08:31:47;;;;;;;4.30;3.60;;;;;;;8.76;100.00;98263.27;106211;1251;60434;-79
2024/04/17 08:34:14;;;;;;;4.90;3.30;;;;;;;8.71;100.00;98262.14;106256;1254;60787;-77
2024/04/17 08:36:40;;;;;;;6.20;3.10;;;;;;;8.72;100.00;98259.65;106698;1254;73892;-78
2024/04/17 08:39:07;;;;;;;3.90;2.80;;;;;;;8.74;100.00;98254.98;106293;1254;69167;-78
2024/04/17 08:41:34;;;;;;;3.50;2.70;;;;;;;8.77;100.00;98257.17;105911;1254;72498;-78
2024/04/17 08:44:03;;;;;;;3.10;2.40;;;;;;;8.72;100.00;98259.30;106110;1256;60541;-77
2024/04/17 08:46:30;;;;;;;3.10;2.70;;;;;;;8.66;100.00;98257.49;105927;1251;60485;-77
2024/04/17 08:48:57;;;;;;;3.30;2.80;;;;;;;8.61;100.00;98255.86;106732;1251;75071;-78
2024/04/17 08:51:24;;;;;;;3.60;2.40;;;;;;;8.57;99.95;98256.16;106299;1251;70209;-78
2024/04/17 08:53:53;;;;;;;12.80;3.00;;;;;;;8.54;99.96;98262.58;105961;1254;73858;-79
2024/04/17 08:56:24;;;;;;;6.70;2.70;;;;;;;8.51;99.61;98266.16;106176;1254;61254;-78
2024/04/17 08:58:51;;;;;;;3.80;2.90;;;;;;;8.45;99.60;98267.02;107821;1251;61215;-78
2024/04/17 09:01:18;;;;;;;5.20;3.00;;;;;;;8.45;99.90;98263.66;108433;1258;76934;-78
2024/04/17 09:03:45;;;;;;;5.00;3.00;;;;;;;8.44;100.00;98268.91;106754;1251;70261;-77
2024/04/17 09:06:12;;;;;;;3.20;2.80;;;;;;;8.41;100.00;98269.88;106603;1251;73909;-77
2024/04/17 09:08:40;;;;;;;3.60;3.10;;;;;;;8.45;100.00;98271.41;106356;1251;61250;-78
2024/04/17 09:11:08;;;;;;;3.40;2.30;;;;;;;8.43;100.00;98272.98;106424;1251;61239;-78
2024/04/17 09:13:35;;;;;;;3.30;2.50;;;;;;;8.48;100.00;98269.41;105903;1251;75432;-77
2024/04/17 09:16:02;;;;;;;3.60;2.30;;;;;;;8.51;100.00;98269.79;106309;1254;68993;-78
2024/04/17 09:18:29;;;;;;;5.30;2.60;;;;;;;8.54;100.00;98268.19;106113;1251;72150;-78
2024/04/17 09:20:56;;;;;;;3.90;3.20;;;;;;;8.54;100.00;98271.56;105871;1251;61291;-78
2024/04/17 09:23:23;;;;;;;4.80;2.60;;;;;;;8.52;100.00;98271.48;106242;1251;61122;-78
2024/04/17 09:25:50;;;;;;;5.20;3.10;;;;;;;8.52;100.00;98274.73;106039;1251;75120;-79
2024/04/17 09:28:18;;;;;;;4.20;2.90;;;;;;;8.54;100.00;98269.91;105913;1251;71592;-77
2024/04/17 09:30:47;;;;;;;4.10;2.90;;;;;;;8.57;100.00;98274.70;106031;1251;72775;-78
2024/04/17 09:33:14;;;;;;;3.20;2.90;;;;;;;8.58;100.00;98274.04;106062;1257;61298;-77
2024/04/17 09:35:41;;;;;;;3.90;2.70;;;;;;;8.59;100.00;98274.05;105914;1251;61246;-77
2024/04/17 09:38:12;;;;;;;4.40;3.00;;;;;;;8.55;100.00;98272.18;105905;1254;74398;-77
2024/04/17 09:40:41;;;;;;;7.20;4.20;;;;;;;8.49;100.00;98268.30;105932;1254;70333;-79
2024/04/17 09:43:08;;;;;;;3.10;2.50;;;;;;;8.50;100.00;98270.04;105949;1251;72801;-76
2024/04/17 09:45:52;;;;;;;6.00;3.60;;;;;;;8.55;100.00;98277.90;106073;1251;61361;-77
2024/04/17 09:48:19;;;;;;;5.90;2.70;;;;;;;8.57;100.00;98285.84;106099;1251;61277;-78
2024/04/17 09:50:46;;;;;;;4.60;2.80;;;;;;;8.62;100.00;98300.15;106186;1251;75847;-78
2024/04/17 09:53:13;;;;;;;5.50;2.80;;;;;;;8.60;100.00;98300.61;107288;1257;69663;-80
2024/04/17 09:55:54;;;;;;;3.70;3.10;;;;;;;8.61;100.00;98299.94;106955;1254;71927;-77
2024/04/17 09:58:21;;;;;;;3.90;3.10;;;;;;;8.63;100.00;98300.20;106077;1254;62053;-78
2024/04/17 10:00:48;;;;;;;6.60;4.70;;;;;;;8.65;100.00;98301.39;106153;1251;61334;-77
2024/04/17 10:03:15;;;;;;;17.10;8.70;;;;;;;8.74;100.00;98304.48;106153;1254;75891;-76
2024/04/17 10:05:42;;;;;;;15.50;7.90;;;;;;;8.83;100.00;98303.34;106597;1251;70176;-76
2024/04/17 10:08:09;;;;;;;8.20;5.30;;;;;;;8.94;100.00;98310.33;106554;1251;71536;-79
2024/04/17 10:10:37;;;;;;;10.70;5.50;;;;;;;8.99;100.00;98309.14;106274;1254;61438;-79
2024/04/17 10:13:05;;;;;;;6.80;5.00;;;;;;;9.03;100.00;98309.71;106668;1252;61222;-82
2024/04/17 10:15:32;;;;;;;5.90;5.00;;;;;;;9.10;99.98;98313.58;106981;1253;75559;-80
2024/04/17 10:17:59;;;;;;;8.20;5.10;;;;;;;9.16;99.82;98316.88;107104;1251;69270;-82
2024/04/17 10:20:27;;;;;;;8.00;5.30;;;;;;;9.22;99.76;98314.39;107767;1251;71805;-81
2024/04/17 10:23:04;;;;;;;5.80;3.70;;;;;;;9.25;100.00;98315.11;107584;1251;61879;-81
2024/04/17 10:25:53;;;;;;;5.20;3.50;;;;;;;9.38;99.81;98305.85;107512;1252;61755;-81
2024/04/17 10:28:21;;;;;;;3.90;3.20;;;;;;;9.56;100.00;98299.79;106916;1259;74455;-80
2024/04/17 10:30:48;;;;;;;4.30;2.90;;;;;;;9.80;100.00;98301.92;106389;1256;69500;-79
2024/04/17 10:33:36;;;;;;;8.90;4.00;;;;;;;10.05;100.00;98293.31;106174;1254;72793;-81
2024/04/17 10:36:05;;;;;;;5.70;4.20;;;;;;;10.36;100.00;98290.05;106148;1257;61157;-79
2024/04/17 10:38:32;;;;;;;4.30;3.90;;;;;;;10.59;100.00;98288.23;106317;1255;61167;-79
2024/04/17 10:41:08;;;;;;;8.80;4.90;;;;;;;10.71;99.72;98286.33;106049;1251;74618;-80
2024/04/17 10:43:35;;;;;;;5.50;4.30;;;;;;;10.78;99.33;98287.48;106129;1254;71866;-80
2024/04/17 10:46:08;;;;;;;6.20;4.50;;;;;;;10.74;98.01;98289.77;107689;1251;72699;-80
2024/04/17 10:48:51;;;;;;;5.90;4.80;;;;;;;10.74;97.59;98300.80;107831;1251;62466;-80
2024/04/17 10:51:18;;;;;;;5.90;4.80;;;;;;;10.78;98.04;98295.80;106159;1253;61250;-79
2024/04/17 10:53:46;;;;;;;6.40;4.90;;;;;;;10.84;98.44;98295.73;106329;1256;74437;-79
2024/04/17 10:56:14;;;;;;;4.80;4.10;;;;;;;10.85;97.63;98298.50;106127;1252;70477;-80
2024/04/17 10:58:42;;;;;;;6.50;3.70;;;;;;;10.82;96.78;98302.59;106267;1256;71287;-80
2024/04/17 11:01:12;;;;;;;3.70;3.30;;;;;;;10.71;95.88;98298.50;106811;1254;61227;-81
2024/04/17 11:03:39;;;;;;;6.40;3.30;;;;;;;10.55;93.55;98306.46;106395;1253;61192;-77
2024/04/17 11:06:07;;;;;;;4.20;3.20;;;;;;;10.34;92.35;98313.70;106323;1251;73334;-81
2024/04/17 11:08:40;;;;;;;3.40;2.80;;;;;;;10.19;91.85;98319.14;107744;1251;71705;-81
2024/04/17 11:11:15;;;;;;;5.80;2.40;;;;;;;9.95;90.25;98328.84;106817;1254;72710;-80
2024/04/17 11:13:44;;;;;;;3.20;2.30;;;;;;;9.82;90.88;98333.55;106191;1254;62073;-83
2024/04/17 11:16:12;;;;;;;4.50;2.50;;;;;;;9.79;91.88;98331.88;106899;1251;61125;-82
2024/04/17 11:18:42;;;;;;;4.20;2.50;;;;;;;9.73;91.32;98333.76;106152;1251;74686;-81
2024/04/17 11:21:09;;;;;;;3.00;2.30;;;;;;;9.69;91.62;98333.38;106346;1251;69502;-78
2024/04/17 11:23:40;;;;;;;5.30;2.50;;;;;;;9.57;90.59;98334.70;106256;1256;71421;-80
2024/04/17 11:26:07;;;;;;;5.40;2.60;;;;;;;9.53;91.64;98333.09;106735;1256;62006;-80
2024/04/17 11:28:40;;;;;;;3.00;2.70;;;;;;;9.57;91.48;98327.11;106816;1256;62104;-81
2024/04/17 11:31:11;;;;;;;4.10;3.00;;;;;;;9.63;91.02;98332.05;107660;1254;74744;-83